createdAt,value
2023-01-29T00:01:04.689Z,-0.30
2023-01-29T00:03:31.456Z,-0.50
2023-01-29T00:05:58.596Z,-0.60
2023-01-29T00:08:25.931Z,-0.70
2023-01-29T00:10:52.845Z,-0.80
2023-01-29T00:13:19.874Z,-0.90
2023-01-29T00:15:56.587Z,-0.90
2023-01-29T00:18:23.796Z,-0.90
2023-01-29T00:20:50.933Z,-1.00
2023-01-29T00:23:17.821Z,-1.00
2023-01-29T00:25:44.572Z,-0.80
2023-01-29T00:28:11.477Z,-0.70
2023-01-29T00:30:38.588Z,-0.50
2023-01-29T00:33:05.614Z,-0.50
2023-01-29T00:35:32.696Z,-0.60
2023-01-29T00:37:59.504Z,-0.70
2023-01-29T00:40:26.888Z,-0.70
2023-01-29T00:43:12.541Z,-0.80
2023-01-29T00:45:39.769Z,-0.70
2023-01-29T00:48:06.739Z,-0.70
2023-01-29T00:50:33.662Z,-0.70
2023-01-29T00:53:00.459Z,-0.70
2023-01-29T00:55:27.455Z,-0.60
2023-01-29T00:57:54.327Z,-0.60
2023-01-29T01:00:21.278Z,-0.60
2023-01-29T01:03:06.418Z,-0.60
2023-01-29T01:05:33.746Z,-0.60
2023-01-29T01:08:00.634Z,-0.60
2023-01-29T01:10:27.688Z,-0.60
2023-01-29T01:12:59.108Z,-0.60
2023-01-29T01:15:27.532Z,-0.70
2023-01-29T01:17:55.745Z,-0.60
2023-01-29T01:20:23.137Z,-0.70
2023-01-29T01:22:51.722Z,-0.70
2023-01-29T01:25:18.855Z,-0.70
2023-01-29T01:27:45.711Z,-0.70
2023-01-29T01:30:14.775Z,-0.70
2023-01-29T01:32:42.420Z,-0.80
2023-01-29T01:35:10.308Z,-0.80
2023-01-29T01:37:37.695Z,-0.90
2023-01-29T01:40:12.682Z,-0.80
2023-01-29T01:42:40.220Z,-0.70
2023-01-29T01:45:10.296Z,-0.70
2023-01-29T01:47:40.209Z,-0.80
2023-01-29T01:50:13.247Z,-0.80
2023-01-29T01:52:42.671Z,-0.80
2023-01-29T01:55:12.443Z,-0.90
2023-01-29T01:57:39.681Z,-0.90
2023-01-29T02:00:11.608Z,-0.90
2023-01-29T02:03:01.850Z,-0.90
2023-01-29T02:05:49.573Z,-1.00
2023-01-29T02:08:40.465Z,-1.00
2023-01-29T02:11:07.411Z,-0.90
2023-01-29T02:13:34.295Z,-0.80
2023-01-29T02:16:01.220Z,-0.80
2023-01-29T02:18:28.139Z,-0.70
2023-01-29T02:21:04.849Z,-0.70
2023-01-29T02:23:43.973Z,-0.70
2023-01-29T02:26:15.115Z,-0.80
2023-01-29T02:28:52.831Z,-0.90
2023-01-29T02:31:32.899Z,-0.90
2023-01-29T02:34:02.599Z,-0.90
2023-01-29T02:36:46.844Z,-0.90
2023-01-29T02:39:17.432Z,-0.80
2023-01-29T02:41:59.557Z,-0.70
2023-01-29T02:44:32.752Z,-0.80
2023-01-29T02:47:14.701Z,-0.80
2023-01-29T02:49:48.095Z,-0.70
2023-01-29T02:52:14.990Z,-0.70
2023-01-29T02:54:44.507Z,-0.70
2023-01-29T02:57:23.260Z,-0.80
2023-01-29T02:59:50.648Z,-0.90
2023-01-29T03:02:21.064Z,-0.80
2023-01-29T03:04:51.497Z,-0.80
2023-01-29T03:07:41.038Z,-0.80
2023-01-29T03:10:21.045Z,-0.70
2023-01-29T03:12:52.034Z,-0.60
2023-01-29T03:15:25.169Z,-0.70
2023-01-29T03:18:14.613Z,-0.80
2023-01-29T03:20:54.013Z,-1.00
2023-01-29T03:23:27.176Z,-1.00
2023-01-29T03:26:14.470Z,-1.00
2023-01-29T03:29:00.631Z,-1.00
2023-01-29T03:31:46.898Z,-1.00
2023-01-29T03:34:19.151Z,-1.00
2023-01-29T03:36:56.108Z,-1.10
2023-01-29T03:39:24.351Z,-1.20
2023-01-29T03:42:15.346Z,-1.00
2023-01-29T03:44:42.304Z,-1.20
2023-01-29T03:47:22.036Z,-1.30
2023-01-29T03:49:58.295Z,-1.30
2023-01-29T03:52:25.166Z,-1.30
2023-01-29T03:55:06.970Z,-1.30
2023-01-29T03:57:39.693Z,-1.30
2023-01-29T04:00:34.546Z,-1.30
2023-01-29T04:03:16.936Z,-1.30
2023-01-29T04:05:49.721Z,-1.20
2023-01-29T04:08:32.395Z,-1.20
2023-01-29T04:11:02.781Z,-1.20
2023-01-29T04:13:33.753Z,-1.30
2023-01-29T04:16:02.506Z,-1.40
2023-01-29T04:18:48.457Z,-1.50
2023-01-29T04:21:16.622Z,-1.50
2023-01-29T04:23:43.952Z,-1.40
2023-01-29T04:26:13.999Z,-1.40
2023-01-29T04:29:05.979Z,-1.30
2023-01-29T04:31:34.801Z,-1.30
2023-01-29T04:34:19.346Z,-1.10
2023-01-29T04:37:10.210Z,-1.20
2023-01-29T04:39:37.055Z,-1.40
2023-01-29T04:42:12.288Z,-1.20
2023-01-29T04:44:41.751Z,-1.30
2023-01-29T04:47:41.762Z,-1.30
2023-01-29T04:50:08.689Z,-1.20
2023-01-29T04:52:54.657Z,-1.10
2023-01-29T04:55:26.467Z,-0.90
2023-01-29T04:57:56.855Z,-1.10
2023-01-29T05:00:28.773Z,-1.00
2023-01-29T05:02:56.477Z,-1.00
2023-01-29T05:05:23.319Z,-0.90
2023-01-29T05:07:50.716Z,-1.00
2023-01-29T05:10:19.156Z,-1.00
2023-01-29T05:12:49.701Z,-1.10
2023-01-29T05:15:19.346Z,-1.00
2023-01-29T05:17:46.199Z,-1.10
2023-01-29T05:20:13.853Z,-1.10
2023-01-29T05:22:41.812Z,-1.00
2023-01-29T05:25:21.023Z,-1.00
2023-01-29T05:28:04.063Z,-1.00
2023-01-29T05:30:32.143Z,-1.10
2023-01-29T05:32:58.967Z,-1.00
2023-01-29T05:35:26.111Z,-0.80
2023-01-29T05:37:52.944Z,-0.60
2023-01-29T05:40:19.807Z,-0.70
2023-01-29T05:42:46.669Z,-0.80
2023-01-29T05:45:13.565Z,-1.00
2023-01-29T05:47:40.345Z,-1.00
2023-01-29T05:50:07.879Z,-1.10
2023-01-29T05:52:34.688Z,-1.00
2023-01-29T05:55:01.602Z,-1.00
2023-01-29T05:57:28.455Z,-0.90
2023-01-29T05:59:55.386Z,-0.90
2023-01-29T06:02:22.237Z,-1.00
2023-01-29T06:04:50.903Z,-1.00
2023-01-29T06:07:17.673Z,-1.10
2023-01-29T06:09:44.564Z,-1.00
2023-01-29T06:12:11.393Z,-0.90
2023-01-29T06:14:38.307Z,-1.00
2023-01-29T06:17:05.100Z,-1.00
2023-01-29T06:19:31.955Z,-1.10
2023-01-29T06:21:58.772Z,-1.00
2023-01-29T06:24:25.695Z,-1.10
2023-01-29T06:26:52.558Z,-1.10
2023-01-29T06:29:19.546Z,-1.20
2023-01-29T06:31:46.418Z,-1.20
2023-01-29T06:34:13.340Z,-1.20
2023-01-29T06:36:41.784Z,-1.20
2023-01-29T06:39:08.728Z,-1.20
2023-01-29T06:41:35.545Z,-1.00
2023-01-29T06:44:02.541Z,-1.10
2023-01-29T06:46:29.461Z,-1.20
2023-01-29T06:48:57.953Z,-1.20
2023-01-29T06:51:24.808Z,-1.30
2023-01-29T06:53:51.794Z,-1.30
2023-01-29T06:56:18.662Z,-1.20
2023-01-29T06:58:45.644Z,-1.20
2023-01-29T07:01:17.548Z,-1.20
2023-01-29T07:03:50.240Z,-1.10
2023-01-29T07:06:17.104Z,-1.00
2023-01-29T07:08:44.040Z,-1.00
2023-01-29T07:11:10.901Z,-0.90
2023-01-29T07:13:38.011Z,-0.90
2023-01-29T07:16:06.709Z,-0.90
2023-01-29T07:18:33.687Z,-0.90
2023-01-29T07:21:03.736Z,-0.90
2023-01-29T07:23:30.588Z,-0.90
2023-01-29T07:26:00.119Z,-0.80
2023-01-29T07:28:27.056Z,-0.70
2023-01-29T07:31:00.475Z,-0.70
2023-01-29T07:33:27.439Z,-0.60
2023-01-29T07:35:54.287Z,-0.50
2023-01-29T07:38:21.173Z,-0.30
2023-01-29T07:40:48.145Z,-0.30
2023-01-29T07:43:15.006Z,-0.40
2023-01-29T07:45:42.148Z,-0.40
2023-01-29T07:48:10.524Z,-0.30
2023-01-29T07:50:37.552Z,-0.40
2023-01-29T07:53:04.456Z,-0.50
2023-01-29T07:55:31.418Z,-0.40
2023-01-29T07:57:59.325Z,-0.50
2023-01-29T08:00:26.496Z,-0.50
2023-01-29T08:02:53.320Z,-0.30
2023-01-29T08:05:20.606Z,-0.10
2023-01-29T08:08:05.775Z,-0.10
2023-01-29T08:10:34.329Z,-0.10
2023-01-29T08:13:01.572Z,0.00
2023-01-29T08:15:28.504Z,0.00
2023-01-29T08:20:42.721Z,0.00
2023-01-29T08:23:12.403Z,0.10
2023-01-29T08:25:39.323Z,0.20
2023-01-29T08:28:06.236Z,0.30
2023-01-29T08:30:34.054Z,0.40
2023-01-29T08:33:00.966Z,0.60
2023-01-29T08:35:27.758Z,0.90
2023-01-29T08:37:55.313Z,1.20
2023-01-29T08:40:22.334Z,1.30
2023-01-29T08:42:49.151Z,1.70
2023-01-29T08:45:16.053Z,1.80
2023-01-29T08:47:46.937Z,1.90
2023-01-29T08:50:13.855Z,1.80
2023-01-29T08:52:40.693Z,1.80
2023-01-29T08:55:07.751Z,2.50
2023-01-29T08:57:34.596Z,2.90
2023-01-29T09:00:01.834Z,3.40
2023-01-29T09:02:28.711Z,4.00
2023-01-29T09:04:55.864Z,5.70
2023-01-29T09:07:22.784Z,5.70
2023-01-29T09:09:49.620Z,6.60
2023-01-29T09:12:16.464Z,6.30
2023-01-29T09:14:43.297Z,6.40
2023-01-29T09:17:10.085Z,7.70
2023-01-29T09:19:36.863Z,8.80
2023-01-29T09:22:03.676Z,9.40
2023-01-29T09:24:30.572Z,9.00
2023-01-29T09:26:57.507Z,8.70
2023-01-29T09:29:24.303Z,10.30
2023-01-29T09:31:51.242Z,10.40
2023-01-29T09:34:18.084Z,10.40
2023-01-29T09:36:44.931Z,10.80
2023-01-29T09:39:11.788Z,10.60
2023-01-29T09:41:38.635Z,10.70
2023-01-29T09:44:12.695Z,11.10
2023-01-29T09:46:44.744Z,11.00
2023-01-29T09:49:15.702Z,9.90
2023-01-29T09:51:45.099Z,9.20
2023-01-29T09:54:16.452Z,9.40
2023-01-29T09:56:44.800Z,9.20
2023-01-29T09:59:13.193Z,8.50
2023-01-29T10:01:40.791Z,7.70
2023-01-29T10:04:13.910Z,7.50
2023-01-29T10:06:51.707Z,6.60
2023-01-29T10:09:18.497Z,6.30
2023-01-29T10:11:48.295Z,5.60
2023-01-29T10:14:31.223Z,5.90
2023-01-29T10:17:01.137Z,5.30
2023-01-29T10:19:48.438Z,5.00
2023-01-29T10:22:24.634Z,5.20
2023-01-29T10:24:58.332Z,5.70
2023-01-29T10:27:32.651Z,5.20
2023-01-29T10:30:00.679Z,4.80
2023-01-29T10:32:29.079Z,4.90
2023-01-29T10:35:02.632Z,4.60
2023-01-29T10:37:42.587Z,4.30
2023-01-29T10:40:32.669Z,4.10
2023-01-29T10:43:06.199Z,3.80
2023-01-29T10:45:42.259Z,3.80
2023-01-29T10:48:21.439Z,3.60
2023-01-29T10:50:49.215Z,3.80
2023-01-29T10:53:15.957Z,3.50
2023-01-29T10:56:05.834Z,3.40
2023-01-29T10:58:44.605Z,3.40
2023-01-29T11:01:12.772Z,3.40
2023-01-29T11:03:39.620Z,3.20
2023-01-29T11:06:19.353Z,3.00
2023-01-29T11:08:51.451Z,3.40
2023-01-29T11:11:19.271Z,3.50
2023-01-29T11:13:57.506Z,4.20
2023-01-29T11:16:24.927Z,4.50
2023-01-29T11:18:58.711Z,5.50
2023-01-29T11:21:26.319Z,5.50
2023-01-29T11:24:12.818Z,5.80
2023-01-29T11:26:42.210Z,5.90
2023-01-29T11:29:30.544Z,5.50
2023-01-29T11:31:58.765Z,6.20
2023-01-29T11:34:27.730Z,6.40
2023-01-29T11:36:58.647Z,6.40
2023-01-29T11:39:26.266Z,6.10
2023-01-29T11:42:00.496Z,5.40
2023-01-29T11:44:30.438Z,5.10
2023-01-29T11:46:59.374Z,5.30
2023-01-29T11:49:32.081Z,5.00
2023-01-29T11:52:01.890Z,4.70
2023-01-29T11:54:31.296Z,5.10
2023-01-29T11:56:58.558Z,5.40
2023-01-29T11:59:48.985Z,6.10
2023-01-29T12:02:22.726Z,7.00
2023-01-29T12:04:49.960Z,7.40
2023-01-29T12:07:18.336Z,7.70
2023-01-29T12:09:50.737Z,7.30
2023-01-29T12:12:24.192Z,6.90
2023-01-29T12:15:02.218Z,6.40
2023-01-29T12:17:31.840Z,5.60
2023-01-29T12:20:00.832Z,5.90
2023-01-29T12:22:38.578Z,6.10
2023-01-29T12:25:05.434Z,7.20
2023-01-29T12:27:52.680Z,8.00
2023-01-29T12:30:25.721Z,6.30
2023-01-29T12:32:54.271Z,6.40
2023-01-29T12:35:30.777Z,6.20
2023-01-29T12:38:08.575Z,6.40
2023-01-29T12:40:40.382Z,6.50
2023-01-29T12:43:13.113Z,6.30
2023-01-29T12:45:42.138Z,5.80
2023-01-29T12:48:10.684Z,5.40
2023-01-29T12:50:38.436Z,5.00
2023-01-29T12:53:14.399Z,4.70
2023-01-29T12:56:02.620Z,4.60
2023-01-29T12:58:36.535Z,5.30
2023-01-29T13:01:06.918Z,6.00
2023-01-29T13:03:45.959Z,5.90
2023-01-29T13:06:15.916Z,5.70
2023-01-29T13:08:44.995Z,5.60
2023-01-29T13:11:34.506Z,4.90
2023-01-29T13:14:04.208Z,4.80
2023-01-29T13:16:36.318Z,5.00
2023-01-29T13:19:05.353Z,5.20
2023-01-29T13:21:38.203Z,5.70
2023-01-29T13:24:22.122Z,6.20
2023-01-29T13:26:49.353Z,6.10
2023-01-29T13:29:29.828Z,5.90
2023-01-29T13:31:57.785Z,5.80
2023-01-29T13:34:25.985Z,5.70
2023-01-29T13:36:54.517Z,6.00
2023-01-29T13:39:27.175Z,5.70
2023-01-29T13:41:54.696Z,5.30
2023-01-29T13:44:26.844Z,5.10
2023-01-29T13:47:05.275Z,4.90
2023-01-29T13:49:39.947Z,4.70
2023-01-29T13:52:17.358Z,4.70
2023-01-29T13:54:52.822Z,4.50
2023-01-29T13:57:36.913Z,4.50
2023-01-29T14:00:05.067Z,4.60
2023-01-29T14:02:32.175Z,4.50
2023-01-29T14:05:18.062Z,4.00
2023-01-29T14:07:49.931Z,3.90
2023-01-29T14:10:18.437Z,3.60
2023-01-29T14:12:45.908Z,3.60
2023-01-29T14:15:22.526Z,3.70
2023-01-29T14:17:56.435Z,3.70
2023-01-29T14:20:47.295Z,3.70
2023-01-29T14:23:37.793Z,3.80
2023-01-29T14:26:06.206Z,3.70
2023-01-29T14:28:34.149Z,3.70
2023-01-29T14:31:01.383Z,3.70
2023-01-29T14:33:39.159Z,3.50
2023-01-29T14:36:09.604Z,3.30
2023-01-29T14:38:36.833Z,3.10
2023-01-29T14:41:19.079Z,3.10
2023-01-29T14:43:46.002Z,3.10
2023-01-29T14:46:31.511Z,3.20
2023-01-29T14:48:58.403Z,3.30
2023-01-29T14:51:26.137Z,3.70
2023-01-29T14:53:56.198Z,3.70
2023-01-29T14:56:32.260Z,3.60
2023-01-29T14:59:17.901Z,3.40
2023-01-29T15:01:51.326Z,3.30
2023-01-29T15:04:25.677Z,3.20
2023-01-29T15:07:15.944Z,3.20
2023-01-29T15:09:46.487Z,3.20
2023-01-29T15:12:16.303Z,3.00
2023-01-29T15:14:59.965Z,2.70
2023-01-29T15:17:53.030Z,2.60
2023-01-29T15:20:26.240Z,2.40
2023-01-29T15:22:53.181Z,2.50
2023-01-29T15:25:21.669Z,2.40
2023-01-29T15:27:48.974Z,2.30
2023-01-29T15:30:17.851Z,2.30
2023-01-29T15:32:45.028Z,2.20
2023-01-29T15:35:20.874Z,2.10
2023-01-29T15:37:58.360Z,2.00
2023-01-29T15:40:25.526Z,1.90
2023-01-29T15:42:52.300Z,1.70
2023-01-29T15:45:32.049Z,1.60
2023-01-29T15:48:04.205Z,1.60
2023-01-29T15:50:32.858Z,1.50
2023-01-29T15:53:01.188Z,1.40
2023-01-29T15:55:28.044Z,1.30
2023-01-29T15:57:54.887Z,1.20
2023-01-29T16:00:22.195Z,1.30
2023-01-29T16:02:49.032Z,1.10
2023-01-29T16:05:17.782Z,1.10
2023-01-29T16:07:45.375Z,1.00
2023-01-29T16:10:15.566Z,0.70
2023-01-29T16:12:42.826Z,0.60
2023-01-29T16:15:18.575Z,0.50
2023-01-29T16:17:45.947Z,0.40
2023-01-29T16:20:42.246Z,0.30
2023-01-29T16:23:16.186Z,0.30
2023-01-29T16:25:43.208Z,0.20
2023-01-29T16:28:11.074Z,0.00
2023-01-29T16:30:38.846Z,-0.20
2023-01-29T16:33:06.519Z,-0.20
2023-01-29T16:35:33.715Z,-0.30
2023-01-29T16:38:03.256Z,-0.20
2023-01-29T16:40:35.502Z,-0.40
2023-01-29T16:43:17.366Z,-0.50
2023-01-29T16:46:01.217Z,-0.50
2023-01-29T16:48:33.660Z,-0.60
2023-01-29T16:51:12.623Z,-0.60
2023-01-29T16:53:39.681Z,-0.70
2023-01-29T16:56:08.232Z,-0.70
2023-01-29T16:58:35.406Z,-0.70
2023-01-29T17:01:03.734Z,-0.70
2023-01-29T17:03:31.856Z,-0.80
2023-01-29T17:05:59.088Z,-0.70
2023-01-29T17:08:29.688Z,-0.70
2023-01-29T17:10:56.563Z,-0.70
2023-01-29T17:13:40.407Z,-0.80
2023-01-29T17:16:19.651Z,-0.90
2023-01-29T17:18:46.498Z,-0.80
2023-01-29T17:21:13.473Z,-0.80
2023-01-29T17:23:40.389Z,-0.90
2023-01-29T17:26:09.026Z,-0.90
2023-01-29T17:28:35.943Z,-0.80
2023-01-29T17:31:06.474Z,-0.90
2023-01-29T17:33:34.858Z,-1.00
2023-01-29T17:36:01.716Z,-1.00
2023-01-29T17:38:28.634Z,-1.00
2023-01-29T17:41:07.294Z,-0.90
2023-01-29T17:43:34.432Z,-1.00
2023-01-29T17:46:01.327Z,-1.10
2023-01-29T17:48:28.963Z,-1.20
2023-01-29T17:50:58.308Z,-1.30
2023-01-29T17:53:30.516Z,-1.30
2023-01-29T17:56:03.259Z,-1.20
2023-01-29T17:58:30.053Z,-1.20
2023-01-29T18:00:57.008Z,-1.20
2023-01-29T18:03:23.959Z,-1.20
2023-01-29T18:05:50.899Z,-1.20
2023-01-29T18:08:29.815Z,-0.90
2023-01-29T18:10:56.797Z,-0.90
2023-01-29T18:13:23.842Z,-0.80
2023-01-29T18:15:51.274Z,-0.80
2023-01-29T18:18:22.502Z,-1.00
2023-01-29T18:20:49.837Z,-1.00
2023-01-29T18:23:16.736Z,-1.20
2023-01-29T18:25:44.074Z,-1.30
2023-01-29T18:28:15.132Z,-1.60
2023-01-29T18:30:43.337Z,-1.60
2023-01-29T18:33:10.857Z,-1.70
2023-01-29T18:35:38.514Z,-1.80
2023-01-29T18:38:05.525Z,-1.80
2023-01-29T18:40:32.401Z,-1.70
2023-01-29T18:43:00.895Z,-1.80
2023-01-29T18:45:28.474Z,-1.70
2023-01-29T18:47:55.769Z,-1.80
2023-01-29T18:50:26.392Z,-1.70
2023-01-29T18:52:54.002Z,-1.70
2023-01-29T18:55:21.007Z,-1.70
2023-01-29T18:58:26.702Z,-1.70
2023-01-29T19:00:34.790Z,-1.50
2023-01-29T19:03:02.293Z,-1.40
2023-01-29T19:05:29.231Z,-1.40
2023-01-29T19:07:56.105Z,-1.40
2023-01-29T19:10:23.007Z,-1.50
2023-01-29T19:12:49.804Z,-1.50
2023-01-29T19:15:20.692Z,-1.60
2023-01-29T19:17:47.664Z,-1.60
2023-01-29T19:20:14.697Z,-1.70
2023-01-29T19:22:41.656Z,-1.60
2023-01-29T19:25:08.817Z,-1.60
2023-01-29T19:27:35.776Z,-1.50
2023-01-29T19:30:05.518Z,-1.50
2023-01-29T19:32:32.403Z,-1.70
2023-01-29T19:34:59.363Z,-1.60
2023-01-29T19:37:26.184Z,-1.60
2023-01-29T19:39:53.835Z,-1.70
2023-01-29T19:42:21.008Z,-1.60
2023-01-29T19:44:48.153Z,-1.60
2023-01-29T19:47:15.122Z,-1.50
2023-01-29T19:49:42.013Z,-1.50
2023-01-29T19:52:31.785Z,-1.40
2023-01-29T19:55:01.572Z,-1.50
2023-01-29T19:57:29.372Z,-1.40
2023-01-29T19:59:59.589Z,-1.40
2023-01-29T20:02:27.870Z,-1.60
2023-01-29T20:04:55.323Z,-1.70
2023-01-29T20:07:22.887Z,-1.70
2023-01-29T20:09:51.919Z,-1.80
2023-01-29T20:12:19.487Z,-1.90
2023-01-29T20:14:48.966Z,-1.80
2023-01-29T20:17:16.341Z,-1.90
2023-01-29T20:19:44.186Z,-1.90
2023-01-29T20:22:11.855Z,-1.80
2023-01-29T20:24:42.276Z,-1.70
2023-01-29T20:27:10.383Z,-1.60
2023-01-29T20:29:38.007Z,-1.60
2023-01-29T20:32:05.455Z,-1.60
2023-01-29T20:34:32.502Z,-1.70
2023-01-29T20:36:59.440Z,-1.80
2023-01-29T20:39:26.243Z,-1.70
2023-01-29T20:41:53.534Z,-1.70
2023-01-29T20:44:20.452Z,-1.60
2023-01-29T20:46:47.341Z,-1.70
2023-01-29T20:49:14.171Z,-1.60
2023-01-29T20:51:41.081Z,-1.60
2023-01-29T20:54:08.142Z,-1.70
2023-01-29T20:56:36.503Z,-1.60
2023-01-29T20:59:08.411Z,-1.70
2023-01-29T21:01:35.271Z,-1.70
2023-01-29T21:04:02.205Z,-1.70
2023-01-29T21:06:29.597Z,-1.70
2023-01-29T21:08:56.599Z,-1.80
2023-01-29T21:11:23.649Z,-1.80
2023-01-29T21:13:53.186Z,-1.60
2023-01-29T21:16:20.069Z,-1.50
2023-01-29T21:18:46.988Z,-1.40
2023-01-29T21:21:13.866Z,-1.30
2023-01-29T21:23:40.815Z,-1.40
2023-01-29T21:26:07.929Z,-1.30
2023-01-29T21:28:34.879Z,-1.30
2023-01-29T21:31:02.435Z,-1.20
2023-01-29T21:33:29.288Z,-1.10
2023-01-29T21:35:59.681Z,-1.10
2023-01-29T21:38:26.916Z,-1.20
2023-01-29T21:40:58.695Z,-1.10
2023-01-29T21:43:25.785Z,-0.90
2023-01-29T21:46:00.242Z,-0.90
2023-01-29T21:48:27.557Z,-1.00
2023-01-29T21:50:54.379Z,-1.00
2023-01-29T21:53:21.441Z,-0.90
2023-01-29T21:55:48.353Z,-1.00
2023-01-29T21:58:15.237Z,-0.90
2023-01-29T22:00:42.169Z,-0.80
2023-01-29T22:03:08.962Z,-0.60
2023-01-29T22:05:35.798Z,-0.70
2023-01-29T22:08:04.771Z,-0.80
2023-01-29T22:10:34.003Z,-0.50
2023-01-29T22:13:02.045Z,-0.50
2023-01-29T22:15:28.941Z,-0.40
2023-01-29T22:17:55.785Z,-0.40
2023-01-29T22:20:29.797Z,-0.50
2023-01-29T22:23:00.572Z,-0.50
2023-01-29T22:25:27.994Z,-0.50
2023-01-29T22:27:55.005Z,-0.60
2023-01-29T22:30:23.460Z,-0.60
2023-01-29T22:32:50.767Z,-0.50
2023-01-29T22:35:17.861Z,-0.50
2023-01-29T22:37:45.203Z,-0.60
2023-01-29T22:40:12.994Z,-0.50
2023-01-29T22:42:40.067Z,-0.60
2023-01-29T22:45:08.093Z,-0.50
2023-01-29T22:47:34.970Z,-0.60
2023-01-29T22:50:01.852Z,-0.60
2023-01-29T22:52:38.669Z,-0.60
2023-01-29T22:55:06.606Z,-0.70
2023-01-29T22:57:33.479Z,-0.80
2023-01-29T23:00:00.423Z,-0.70
2023-01-29T23:02:27.334Z,-0.70
2023-01-29T23:04:54.311Z,-0.80
2023-01-29T23:07:21.109Z,-0.70
2023-01-29T23:09:47.947Z,-0.60
2023-01-29T23:12:15.131Z,-0.60
2023-01-29T23:14:42.925Z,-0.60
2023-01-29T23:17:09.923Z,-0.60
2023-01-29T23:19:36.755Z,-0.60
2023-01-29T23:22:03.621Z,-0.60
2023-01-29T23:24:30.440Z,-0.70
2023-01-29T23:27:15.606Z,-0.70
2023-01-29T23:29:42.531Z,-0.70
2023-01-29T23:32:09.501Z,-0.70
2023-01-29T23:34:36.399Z,-0.70
2023-01-29T23:37:03.463Z,-0.70
2023-01-29T23:39:30.300Z,-0.70
2023-01-29T23:41:57.079Z,-0.80
2023-01-29T23:44:23.913Z,-0.80
2023-01-29T23:46:50.936Z,-0.80
2023-01-29T23:49:18.716Z,-0.90
2023-01-29T23:51:49.868Z,-0.90
2023-01-29T23:54:17.154Z,-0.80
2023-01-29T23:56:44.390Z,-0.70
2023-01-29T23:59:11.383Z,-0.70
